Time;durP1;ratioP1;P1;durP2;ratioP2;P2;SDS_P1;SDS_P2;PMS_P1;PMS_P2;Temp;Humidity;BMP_temperature;BMP_pressure;BME280_temperature;BME280_humidity;BME280_pressure;Samples;Min_cycle;Max_cycle;Signal;HPM_P1;HPM_P2
2022/11/29 00:00:09;;;;;;;;;;;8.20;99.90;;;;;;5046100;28;19913;-73
2022/11/29 00:02:34;;;;;;;;;;;8.20;99.90;;;;;;5049195;28;20216;-81
2022/11/29 00:05:00;;;;;;;;;;;8.20;99.90;;;;;;5046493;28;19916;-81
2022/11/29 00:07:25;;;;;;;;;;;8.20;99.90;;;;;;5050762;28;19913;-82
2022/11/29 00:09:51;;;;;;;;;;;8.20;99.90;;;;;;5046433;28;19911;-82
2022/11/29 00:12:17;;;;;;;;;;;8.20;99.90;;;;;;5048735;28;19924;-82
2022/11/29 00:14:42;;;;;;;;;;;8.20;99.90;;;;;;5050128;28;19915;-81
2022/11/29 00:17:08;;;;;;;;;;;8.20;99.90;;;;;;5052302;28;19916;-81
2022/11/29 00:19:34;;;;;;;;;;;8.10;99.90;;;;;;5051966;28;19940;-81
2022/11/29 00:22:00;;;;;;;;;;;8.10;99.90;;;;;;5049930;28;20341;-81
2022/11/29 00:24:26;;;;;;;;;;;8.10;99.90;;;;;;5051432;28;19915;-82
2022/11/29 00:26:51;;;;;;;;;;;8.10;99.90;;;;;;5051472;28;20246;-83
2022/11/29 00:29:17;;;;;;;;;;;8.10;99.90;;;;;;5053205;28;20311;-83
2022/11/29 00:31:43;;;;;;;;;;;8.10;99.90;;;;;;5055066;28;20327;-81
2022/11/29 00:34:09;;;;;;;;;;;8.10;99.90;;;;;;5054471;28;20218;-82
2022/11/29 00:36:35;;;;;;;;;;;8.10;99.90;;;;;;5053208;28;19915;-82
2022/11/29 00:39:02;;;;;;;;;;;8.10;99.90;;;;;;5045220;28;20007;-81
2022/11/29 00:41:27;;;;;;;;;;;8.10;99.90;;;;;;5047177;28;19919;-81
2022/11/29 00:43:53;;;;;;;;;;;8.10;99.90;;;;;;5048907;28;19913;-81
2022/11/29 00:46:18;;;;;;;;;;;8.00;99.90;;;;;;5042406;28;19913;-81
2022/11/29 00:48:44;;;;;;;;;;;8.00;99.90;;;;;;5054823;28;19952;-79
2022/11/29 00:51:10;;;;;;;;;;;8.10;99.90;;;;;;5054689;28;19908;-81
2022/11/29 00:53:36;;;;;;;;;;;8.10;99.90;;;;;;5052162;28;19987;-82
2022/11/29 00:56:02;;;;;;;;;;;8.10;99.90;;;;;;5041905;28;19922;-82
2022/11/29 00:58:27;;;;;;;;;;;8.10;99.90;;;;;;5048193;28;19920;-82
2022/11/29 01:00:53;;;;;;;;;;;8.10;99.90;;;;;;5041966;28;20323;-83
2022/11/29 01:03:19;;;;;;;;;;;8.00;99.90;;;;;;5044754;28;19913;-82
2022/11/29 01:05:45;;;;;;;;;;;8.00;99.90;;;;;;5038957;28;19909;-83
2022/11/29 01:08:11;;;;;;;;;;;8.00;99.90;;;;;;5047166;28;19986;-82
2022/11/29 01:10:37;;;;;;;;;;;8.00;99.90;;;;;;5040043;28;19966;-84
2022/11/29 01:13:02;;;;;;;;;;;8.00;99.90;;;;;;5049710;28;19912;-82
2022/11/29 01:15:28;;;;;;;;;;;8.00;99.90;;;;;;5048301;28;20308;-83
2022/11/29 01:17:54;;;;;;;;;;;8.00;99.90;;;;;;5043215;28;19912;-83
2022/11/29 01:20:19;;;;;;;;;;;8.00;99.90;;;;;;5053512;28;19954;-77
2022/11/29 01:22:45;;;;;;;;;;;8.00;99.90;;;;;;5047119;28;20003;-83
2022/11/29 01:25:14;;;;;;;;;;;7.90;99.90;;;;;;5045999;28;20270;-82
2022/11/29 01:27:39;;;;;;;;;;;8.00;99.90;;;;;;5045224;28;19916;-74
2022/11/29 01:30:06;;;;;;;;;;;8.00;99.90;;;;;;5049780;28;19916;-83
2022/11/29 01:32:31;;;;;;;;;;;8.00;99.90;;;;;;5053218;28;19923;-82
2022/11/29 01:34:57;;;;;;;;;;;8.00;99.90;;;;;;5044876;28;19912;-83
2022/11/29 01:37:23;;;;;;;;;;;8.00;99.90;;;;;;5051729;28;19958;-83
2022/11/29 01:39:48;;;;;;;;;;;8.00;99.90;;;;;;5048507;28;19920;-82
2022/11/29 01:42:14;;;;;;;;;;;8.00;99.90;;;;;;5049089;28;19913;-82
2022/11/29 01:44:48;;;;;;;;;;;8.00;99.90;;;;;;5053264;28;19912;-77
2022/11/29 01:47:15;;;;;;;;;;;7.90;99.90;;;;;;5052851;28;20376;-82
2022/11/29 01:49:42;;;;;;;;;;;7.90;99.90;;;;;;5050061;28;19913;-82
2022/11/29 01:52:25;;;;;;;;;;;8.00;99.90;;;;;;5051624;28;19919;-82
2022/11/29 01:54:54;;;;;;;;;;;8.00;99.90;;;;;;5044359;28;19942;-74
2022/11/29 01:57:19;;;;;;;;;;;8.00;99.90;;;;;;5052705;28;20304;-74
2022/11/29 01:59:47;;;;;;;;;;;8.00;99.90;;;;;;5050227;28;20038;-83
2022/11/29 02:02:14;;;;;;;;;;;8.00;99.90;;;;;;5044983;28;20292;-83
2022/11/29 02:04:41;;;;;;;;;;;8.00;99.90;;;;;;5036874;28;20007;-82
2022/11/29 02:07:06;;;;;;;;;;;8.00;99.90;;;;;;5054081;28;20318;-82
2022/11/29 02:09:32;;;;;;;;;;;8.00;99.90;;;;;;5051837;28;19909;-83
2022/11/29 02:12:16;;;;;;;;;;;8.00;99.90;;;;;;5049943;28;19917;-83
2022/11/29 02:14:51;;;;;;;;;;;8.00;99.90;;;;;;5051692;28;19909;-74
2022/11/29 02:17:28;;;;;;;;;;;8.00;99.90;;;;;;5045041;28;19940;-82
2022/11/29 02:20:12;;;;;;;;;;;8.00;99.90;;;;;;5052503;28;19920;-83
2022/11/29 02:22:44;;;;;;;;;;;8.00;99.90;;;;;;5044264;28;19939;-76
2022/11/29 02:25:23;;;;;;;;;;;8.00;99.90;;;;;;5050978;28;20296;-82
2022/11/29 02:28:07;;;;;;;;;;;8.00;99.90;;;;;;5040552;28;19946;-75
2022/11/29 02:30:32;;;;;;;;;;;8.00;99.90;;;;;;5034048;28;20256;-82
2022/11/29 02:33:16;;;;;;;;;;;8.00;99.90;;;;;;5036401;28;19909;-82
2022/11/29 02:35:44;;;;;;;;;;;8.00;99.90;;;;;;5043948;28;19915;-83
2022/11/29 02:38:28;;;;;;;;;;;7.90;99.90;;;;;;5043851;28;20066;-74
2022/11/29 02:41:12;;;;;;;;;;;7.90;99.90;;;;;;5042246;28;19917;-83
2022/11/29 02:44:07;;;;;;;;;;;7.90;99.90;;;;;;5045144;28;19913;-74
2022/11/29 02:46:47;;;;;;;;;;;7.90;99.90;;;;;;4974044;28;19910;-79
2022/11/29 02:49:19;;;;;;;;;;;7.90;99.90;;;;;;5037491;28;19912;-79
2022/11/29 02:51:55;;;;;;;;;;;7.90;99.90;;;;;;5051207;28;19958;-75
2022/11/29 02:54:36;;;;;;;;;;;7.90;99.90;;;;;;5045472;28;19917;-75
2022/11/29 02:57:05;;;;;;;;;;;7.90;99.90;;;;;;5043999;28;19912;-82
2022/11/29 02:59:36;;;;;;;;;;;7.90;99.90;;;;;;5047176;28;19997;-75
2022/11/29 03:02:08;;;;;;;;;;;7.90;99.90;;;;;;5056307;28;19912;-74
2022/11/29 03:04:44;;;;;;;;;;;7.90;99.90;;;;;;5055746;28;20011;-73
2022/11/29 03:07:12;;;;;;;;;;;7.90;99.90;;;;;;5049725;28;20254;-75
2022/11/29 03:09:48;;;;;;;;;;;7.90;99.90;;;;;;5054575;28;19963;-80
2022/11/29 03:12:19;;;;;;;;;;;7.90;99.90;;;;;;5049503;28;19958;-83
2022/11/29 03:14:45;;;;;;;;;;;7.90;99.90;;;;;;5052136;28;19913;-83
2022/11/29 03:17:16;;;;;;;;;;;7.90;99.90;;;;;;5056116;28;19908;-82
2022/11/29 03:19:50;;;;;;;;;;;7.90;99.90;;;;;;5033906;28;19958;-74
2022/11/29 03:22:25;;;;;;;;;;;7.80;99.90;;;;;;5054829;28;19915;-83
2022/11/29 03:24:57;;;;;;;;;;;7.90;99.90;;;;;;5055035;28;19944;-81
2022/11/29 03:27:27;;;;;;;;;;;7.80;99.90;;;;;;5048382;28;19919;-82
2022/11/29 03:29:55;;;;;;;;;;;7.80;99.90;;;;;;5051466;28;19951;-74
2022/11/29 03:32:33;;;;;;;;;;;7.80;99.90;;;;;;5047772;28;20363;-82
2022/11/29 03:35:01;;;;;;;;;;;7.80;99.90;;;;;;5053213;28;20007;-74
2022/11/29 03:37:29;;;;;;;;;;;7.80;99.90;;;;;;5055134;28;19913;-83
2022/11/29 03:39:57;;;;;;;;;;;7.80;99.90;;;;;;5053243;28;19909;-80
2022/11/29 03:42:32;;;;;;;;;;;7.80;99.90;;;;;;5050847;28;19955;-82
2022/11/29 03:45:09;;;;;;;;;;;7.80;99.90;;;;;;5044056;28;19913;-81
2022/11/29 03:47:54;;;;;;;;;;;7.80;99.90;;;;;;5050354;28;19917;-82
2022/11/29 03:50:22;;;;;;;;;;;7.70;99.90;;;;;;5056002;28;19904;-75
2022/11/29 03:52:53;;;;;;;;;;;7.70;99.90;;;;;;5049190;28;19928;-81
2022/11/29 03:55:27;;;;;;;;;;;7.70;99.90;;;;;;5037763;28;19920;-83
2022/11/29 03:57:53;;;;;;;;;;;7.70;99.90;;;;;;5051173;28;20339;-83
2022/11/29 04:00:18;;;;;;;;;;;7.70;99.90;;;;;;5051203;28;20003;-75
2022/11/29 04:02:59;;;;;;;;;;;7.70;99.90;;;;;;5047307;28;20208;-82
2022/11/29 04:05:34;;;;;;;;;;;7.70;99.90;;;;;;5048251;28;19909;-80
2022/11/29 04:08:14;;;;;;;;;;;7.60;99.90;;;;;;5054884;28;20015;-82
2022/11/29 04:10:52;;;;;;;;;;;7.60;99.90;;;;;;5051971;28;19913;-83
2022/11/29 04:13:36;;;;;;;;;;;7.70;99.90;;;;;;5049818;28;20300;-84
2022/11/29 04:16:20;;;;;;;;;;;7.60;99.90;;;;;;5047391;28;19935;-74
2022/11/29 04:19:01;;;;;;;;;;;7.60;99.90;;;;;;5046889;28;20339;-83
2022/11/29 04:21:29;;;;;;;;;;;7.60;99.90;;;;;;5054660;28;20262;-75
2022/11/29 04:24:16;;;;;;;;;;;7.60;99.90;;;;;;5048087;28;19953;-74
2022/11/29 04:26:51;;;;;;;;;;;7.60;99.90;;;;;;5045260;28;20014;-84
2022/11/29 04:29:16;;;;;;;;;;;7.50;99.90;;;;;;5054659;28;19909;-83
2022/11/29 04:32:01;;;;;;;;;;;7.50;99.90;;;;;;5045123;28;19916;-82
2022/11/29 04:34:46;;;;;;;;;;;7.60;99.90;;;;;;5046926;28;19981;-82
2022/11/29 04:37:25;;;;;;;;;;;7.60;99.90;;;;;;5044855;28;20005;-82
2022/11/29 04:39:51;;;;;;;;;;;7.60;99.90;;;;;;5048258;28;19909;-83
2022/11/29 04:42:40;;;;;;;;;;;7.60;99.90;;;;;;5055947;28;19908;-83
2022/11/29 04:45:14;;;;;;;;;;;7.50;99.90;;;;;;5047029;28;19913;-82
2022/11/29 04:47:59;;;;;;;;;;;7.70;99.90;;;;;;5051680;28;19919;-82
2022/11/29 04:50:24;;;;;;;;;;;7.60;99.90;;;;;;5047564;28;19909;-74
2022/11/29 04:52:56;;;;;;;;;;;7.60;99.90;;;;;;5049991;28;19908;-74
2022/11/29 04:55:47;;;;;;;;;;;7.50;99.90;;;;;;5053060;28;19920;-81
2022/11/29 04:58:16;;;;;;;;;;;7.50;99.90;;;;;;5058927;28;19917;-81
2022/11/29 05:00:50;;;;;;;;;;;7.50;99.90;;;;;;5048127;28;20299;-81
2022/11/29 05:03:20;;;;;;;;;;;7.50;99.90;;;;;;5053265;28;20296;-81
2022/11/29 05:06:12;;;;;;;;;;;7.50;99.90;;;;;;5054903;28;19908;-82
2022/11/29 05:08:50;;;;;;;;;;;7.50;99.90;;;;;;5015056;28;20269;-83
2022/11/29 05:11:18;;;;;;;;;;;7.50;99.90;;;;;;5043362;28;19999;-82
2022/11/29 05:13:55;;;;;;;;;;;7.50;99.90;;;;;;5040764;28;19909;-82
2022/11/29 05:16:56;;;;;;;;;;;7.50;99.90;;;;;;5053773;28;19908;-75
2022/11/29 05:19:41;;;;;;;;;;;7.50;99.90;;;;;;4985079;28;19930;-82
2022/11/29 05:22:20;;;;;;;;;;;7.50;99.90;;;;;;5040593;28;19915;-82
2022/11/29 05:24:58;;;;;;;;;;;7.50;99.90;;;;;;5047746;28;20322;-82
2022/11/29 05:27:43;;;;;;;;;;;7.50;99.90;;;;;;5051137;28;19943;-77
2022/11/29 05:30:19;;;;;;;;;;;7.50;99.90;;;;;;5052562;28;19917;-75
2022/11/29 05:32:54;;;;;;;;;;;7.50;99.90;;;;;;5043204;28;20000;-82
2022/11/29 05:35:19;;;;;;;;;;;7.50;99.90;;;;;;5048956;28;20306;-81
2022/11/29 05:37:50;;;;;;;;;;;7.50;99.90;;;;;;5052174;28;19967;-82
2022/11/29 05:40:16;;;;;;;;;;;7.50;99.90;;;;;;5044946;28;19909;-82
2022/11/29 05:43:01;;;;;;;;;;;7.50;99.90;;;;;;5050047;28;19908;-81
2022/11/29 05:45:45;;;;;;;;;;;7.50;99.90;;;;;;5045358;28;19924;-81
2022/11/29 05:48:31;;;;;;;;;;;7.50;99.90;;;;;;5042654;28;20011;-80
2022/11/29 05:51:16;;;;;;;;;;;7.50;99.90;;;;;;5051881;28;19912;-82
2022/11/29 05:53:41;;;;;;;;;;;7.50;99.90;;;;;;5050284;28;19963;-81
2022/11/29 05:56:30;;;;;;;;;;;7.50;99.90;;;;;;5050878;28;20320;-82
2022/11/29 05:58:58;;;;;;;;;;;7.50;99.90;;;;;;5046293;28;19913;-82
2022/11/29 06:01:26;;;;;;;;;;;7.50;99.90;;;;;;5052647;28;19909;-74
2022/11/29 06:03:55;;;;;;;;;;;7.50;99.90;;;;;;5048104;28;19909;-82
2022/11/29 06:06:38;;;;;;;;;;;7.40;99.90;;;;;;5049012;28;19962;-82
2022/11/29 06:09:05;;;;;;;;;;;7.40;99.90;;;;;;5051419;28;19966;-74
2022/11/29 06:11:36;;;;;;;;;;;7.40;99.90;;;;;;5051947;28;19974;-81
2022/11/29 06:14:07;;;;;;;;;;;7.50;99.90;;;;;;5052542;28;19936;-80
2022/11/29 06:16:45;;;;;;;;;;;7.50;99.90;;;;;;5047769;28;19909;-80
2022/11/29 06:19:17;;;;;;;;;;;7.40;99.90;;;;;;5050051;28;19971;-80
2022/11/29 06:22:10;;;;;;;;;;;7.40;99.90;;;;;;5039224;28;19913;-80
2022/11/29 06:24:41;;;;;;;;;;;7.30;99.90;;;;;;5045790;28;19915;-81
2022/11/29 06:27:27;;;;;;;;;;;7.30;99.90;;;;;;5048870;28;19920;-78
2022/11/29 06:30:03;;;;;;;;;;;7.30;99.90;;;;;;5055652;28;19909;-81
2022/11/29 06:32:36;;;;;;;;;;;7.30;99.90;;;;;;5053356;28;19923;-74
2022/11/29 06:35:34;;;;;;;;;;;7.30;99.90;;;;;;5051560;28;19912;-81
2022/11/29 06:38:03;;;;;;;;;;;7.30;99.90;;;;;;4980324;28;19918;-81
2022/11/29 06:40:29;;;;;;;;;;;7.30;99.90;;;;;;4959318;28;20014;-74
2022/11/29 06:42:55;;;;;;;;;;;7.30;99.90;;;;;;4982926;28;20435;-81
2022/11/29 06:45:20;;;;;;;;;;;7.30;99.90;;;;;;4991660;28;19996;-78
2022/11/29 06:47:53;;;;;;;;;;;7.30;99.90;;;;;;4993966;28;19959;-80
2022/11/29 06:50:36;;;;;;;;;;;7.30;99.90;;;;;;4990466;28;19960;-80
2022/11/29 06:53:10;;;;;;;;;;;7.30;99.90;;;;;;4988672;28;19937;-75
2022/11/29 06:55:47;;;;;;;;;;;7.30;99.90;;;;;;4991998;28;19941;-77
2022/11/29 06:58:51;;;;;;;;;;;7.30;99.90;;;;;;4995584;28;19910;-80
2022/11/29 07:01:26;;;;;;;;;;;7.20;99.90;;;;;;4900141;29;19979;-81
2022/11/29 07:03:59;;;;;;;;;;;7.30;99.90;;;;;;4899704;29;19935;-77
2022/11/29 07:06:26;;;;;;;;;;;7.20;99.90;;;;;;4895468;29;19919;-78
2022/11/29 07:08:57;;;;;;;;;;;7.30;99.90;;;;;;4908343;29;19928;-80
2022/11/29 07:11:23;;;;;;;;;;;7.30;99.90;;;;;;4899516;29;20360;-79
2022/11/29 07:13:50;;;;;;;;;;;7.30;99.90;;;;;;4936952;28;19923;-80
2022/11/29 07:16:36;;;;;;;;;;;7.20;99.90;;;;;;4974718;28;19912;-73
2022/11/29 07:19:07;;;;;;;;;;;7.20;99.90;;;;;;4968604;28;19956;-81
2022/11/29 07:21:48;;;;;;;;;;;7.20;99.90;;;;;;4965194;28;19934;-81
2022/11/29 07:24:20;;;;;;;;;;;7.20;99.90;;;;;;4969662;28;19921;-74
2022/11/29 07:26:52;;;;;;;;;;;7.10;99.90;;;;;;4969872;28;19910;-81
2022/11/29 07:29:20;;;;;;;;;;;7.10;99.90;;;;;;4978097;28;19913;-81
2022/11/29 07:31:45;;;;;;;;;;;7.10;99.90;;;;;;4999035;28;19917;-80
2022/11/29 07:34:21;;;;;;;;;;;7.10;99.90;;;;;;5038866;28;20250;-82
2022/11/29 07:36:55;;;;;;;;;;;7.10;99.90;;;;;;5036444;28;19913;-74
2022/11/29 07:39:46;;;;;;;;;;;7.00;99.90;;;;;;5059034;28;19912;-80
2022/11/29 07:42:21;;;;;;;;;;;7.00;99.90;;;;;;5058997;28;20203;-82
2022/11/29 07:44:50;;;;;;;;;;;7.00;99.90;;;;;;5056880;28;19904;-82
2022/11/29 07:47:15;;;;;;;;;;;7.00;99.90;;;;;;5050388;28;20292;-82
2022/11/29 07:49:42;;;;;;;;;;;6.90;99.90;;;;;;5051745;28;19909;-82
2022/11/29 07:52:10;;;;;;;;;;;7.00;99.90;;;;;;5043817;28;20330;-75
2022/11/29 07:54:36;;;;;;;;;;;6.90;99.90;;;;;;5045514;28;19920;-81
2022/11/29 07:57:02;;;;;;;;;;;6.90;99.90;;;;;;5056560;28;19915;-82
2022/11/29 07:59:27;;;;;;;;;;;6.90;99.90;;;;;;5056082;28;19915;-81
2022/11/29 08:01:54;;;;;;;;;;;6.90;99.90;;;;;;5052757;28;19970;-81
2022/11/29 08:04:19;;;;;;;;;;;6.80;99.90;;;;;;5041731;28;19916;-74
2022/11/29 08:06:45;;;;;;;;;;;6.80;99.90;;;;;;5047509;28;20215;-82
2022/11/29 08:09:10;;;;;;;;;;;6.90;99.90;;;;;;5044015;28;20354;-81
2022/11/29 08:11:36;;;;;;;;;;;6.90;99.90;;;;;;5046737;28;19913;-81
2022/11/29 08:14:02;;;;;;;;;;;6.90;99.90;;;;;;5053087;28;20355;-82
2022/11/29 08:16:29;;;;;;;;;;;6.90;99.90;;;;;;5053300;28;19967;-82
2022/11/29 08:18:54;;;;;;;;;;;6.90;99.90;;;;;;5050755;28;19933;-74
2022/11/29 08:21:20;;;;;;;;;;;6.90;99.90;;;;;;5053747;28;20940;-81
2022/11/29 08:23:46;;;;;;;;;;;6.80;99.90;;;;;;5046906;28;19912;-84
2022/11/29 08:26:12;;;;;;;;;;;6.80;99.90;;;;;;5055945;28;19915;-80
2022/11/29 08:28:38;;;;;;;;;;;6.80;99.90;;;;;;5055604;28;20204;-81
2022/11/29 08:31:04;;;;;;;;;;;6.80;99.90;;;;;;5055867;28;20216;-81
2022/11/29 08:33:30;;;;;;;;;;;6.80;99.90;;;;;;5050627;28;19905;-81
2022/11/29 08:36:02;;;;;;;;;;;6.70;99.90;;;;;;5055758;28;19932;-81
2022/11/29 08:38:27;;;;;;;;;;;6.70;99.90;;;;;;5048745;28;19940;-81
2022/11/29 08:40:53;;;;;;;;;;;6.70;99.90;;;;;;5047490;28;20310;-82
2022/11/29 08:43:18;;;;;;;;;;;6.70;99.90;;;;;;5042964;28;20076;-75
2022/11/29 08:45:44;;;;;;;;;;;6.70;99.90;;;;;;5050539;28;19990;-83
2022/11/29 08:48:12;;;;;;;;;;;6.70;99.90;;;;;;5047452;28;20099;-84
2022/11/29 08:50:37;;;;;;;;;;;6.70;99.90;;;;;;5045411;28;20330;-83
2022/11/29 08:55:47;;;;;;;;;;;6.70;99.90;;;;;;5049381;28;19973;-81
2022/11/29 08:58:14;;;;;;;;;;;6.70;99.90;;;;;;5046507;28;19913;-82
2022/11/29 09:00:41;;;;;;;;;;;6.80;99.90;;;;;;5052339;28;20301;-74
2022/11/29 09:05:51;;;;;;;;;;;6.80;99.90;;;;;;5046780;28;19916;-82
2022/11/29 09:08:17;;;;;;;;;;;6.80;99.90;;;;;;5055341;28;20234;-82
2022/11/29 09:10:43;;;;;;;;;;;6.80;99.90;;;;;;5047712;28;19944;-83
2022/11/29 09:13:09;;;;;;;;;;;6.80;99.90;;;;;;5043368;28;19913;-78
2022/11/29 09:15:40;;;;;;;;;;;6.80;99.90;;;;;;5050772;28;20326;-77
2022/11/29 09:18:06;;;;;;;;;;;6.80;99.90;;;;;;5051904;28;19909;-82
2022/11/29 09:20:32;;;;;;;;;;;6.80;99.90;;;;;;5053329;28;20215;-82
2022/11/29 09:22:58;;;;;;;;;;;6.90;99.90;;;;;;5055337;28;19912;-82
2022/11/29 09:25:24;;;;;;;;;;;6.90;99.90;;;;;;5055197;28;19908;-83
2022/11/29 09:27:50;;;;;;;;;;;6.90;99.90;;;;;;5047005;28;19967;-74
2022/11/29 09:30:16;;;;;;;;;;;6.90;99.90;;;;;;5055155;28;19904;-83
2022/11/29 09:32:41;;;;;;;;;;;6.90;99.90;;;;;;5055586;28;19905;-74
2022/11/29 09:35:07;;;;;;;;;;;6.90;99.90;;;;;;5050091;28;19944;-82
2022/11/29 09:37:35;;;;;;;;;;;7.00;99.90;;;;;;5047274;28;19962;-82
2022/11/29 09:40:02;;;;;;;;;;;7.00;99.90;;;;;;5050207;28;20287;-80
2022/11/29 09:42:38;;;;;;;;;;;7.00;99.90;;;;;;5055510;28;20295;-82
2022/11/29 09:45:06;;;;;;;;;;;7.10;99.90;;;;;;5038695;28;19962;-80
2022/11/29 09:47:50;;;;;;;;;;;7.20;99.90;;;;;;5053389;28;19963;-73
2022/11/29 09:50:16;;;;;;;;;;;7.20;99.90;;;;;;5053856;28;19904;-82
2022/11/29 09:52:56;;;;;;;;;;;7.20;99.90;;;;;;5042971;28;20315;-74
2022/11/29 09:55:28;;;;;;;;;;;7.10;99.90;;;;;;5041270;28;20211;-82
2022/11/29 09:57:55;;;;;;;;;;;7.10;99.90;;;;;;5051349;28;19917;-83
2022/11/29 10:00:21;;;;;;;;;;;7.00;99.90;;;;;;5050184;28;19913;-78
2022/11/29 10:02:49;;;;;;;;;;;7.00;99.90;;;;;;5052637;28;19913;-85
2022/11/29 10:05:22;;;;;;;;;;;7.00;99.90;;;;;;5053631;28;19909;-82
2022/11/29 10:08:00;;;;;;;;;;;7.10;99.90;;;;;;5038789;28;20043;-83
2022/11/29 10:10:36;;;;;;;;;;;7.20;99.90;;;;;;5040771;28;19948;-83
2022/11/29 10:13:22;;;;;;;;;;;7.20;99.90;;;;;;5054095;28;19987;-81
2022/11/29 10:15:50;;;;;;;;;;;7.20;99.90;;;;;;5052459;28;19916;-82
2022/11/29 10:18:23;;;;;;;;;;;7.20;99.90;;;;;;5049803;28;19912;-83
2022/11/29 10:20:51;;;;;;;;;;;7.30;99.90;;;;;;5047389;28;19917;-78
2022/11/29 10:23:16;;;;;;;;;;;7.30;99.90;;;;;;5052785;28;19915;-82
2022/11/29 10:25:46;;;;;;;;;;;7.30;99.90;;;;;;5053594;28;19908;-82
2022/11/29 10:28:14;;;;;;;;;;;7.30;99.90;;;;;;5048104;28;20296;-74
2022/11/29 10:30:40;;;;;;;;;;;7.30;99.90;;;;;;5052969;28;19940;-81
2022/11/29 10:33:12;;;;;;;;;;;7.40;99.90;;;;;;5053305;28;20288;-82
2022/11/29 10:35:37;;;;;;;;;;;7.40;99.90;;;;;;5049216;28;19909;-82
2022/11/29 10:38:03;;;;;;;;;;;7.40;99.90;;;;;;5048676;28;19959;-83
2022/11/29 10:40:31;;;;;;;;;;;7.50;99.90;;;;;;5053496;28;19917;-75
2022/11/29 10:42:57;;;;;;;;;;;7.50;99.90;;;;;;5051599;28;19915;-84
2022/11/29 10:45:27;;;;;;;;;;;7.60;99.90;;;;;;5047585;28;20203;-81
2022/11/29 10:47:55;;;;;;;;;;;7.70;99.90;;;;;;5054470;28;19982;-82
2022/11/29 10:50:27;;;;;;;;;;;7.80;99.90;;;;;;5051233;28;20279;-83
2022/11/29 10:52:59;;;;;;;;;;;7.80;99.90;;;;;;5040742;28;20036;-82
2022/11/29 10:55:26;;;;;;;;;;;7.90;99.90;;;;;;5041099;28;20332;-83
2022/11/29 10:58:10;;;;;;;;;;;7.90;99.90;;;;;;5035991;28;19905;-82
2022/11/29 11:00:46;;;;;;;;;;;7.80;99.90;;;;;;5040066;28;20319;-83
2022/11/29 11:03:17;;;;;;;;;;;7.90;99.90;;;;;;5046030;28;19908;-82
2022/11/29 11:05:53;;;;;;;;;;;7.80;99.90;;;;;;5049142;28;20296;-82
2022/11/29 11:08:19;;;;;;;;;;;7.90;99.90;;;;;;5048054;28;19913;-82
2022/11/29 11:10:50;;;;;;;;;;;7.90;99.90;;;;;;5057613;28;20319;-74
2022/11/29 11:13:34;;;;;;;;;;;8.00;99.90;;;;;;5048848;28;19992;-82
2022/11/29 11:16:08;;;;;;;;;;;8.00;99.90;;;;;;5053303;28;20208;-77
2022/11/29 11:18:34;;;;;;;;;;;8.10;99.90;;;;;;5047425;28;19932;-82
2022/11/29 11:21:00;;;;;;;;;;;8.20;99.90;;;;;;5045113;28;19908;-79
2022/11/29 11:23:31;;;;;;;;;;;8.20;99.90;;;;;;5051376;28;19908;-85
2022/11/29 11:25:58;;;;;;;;;;;8.20;99.90;;;;;;5048003;28;20303;-84
2022/11/29 11:28:32;;;;;;;;;;;8.10;99.90;;;;;;5049609;28;19917;-83
2022/11/29 11:31:00;;;;;;;;;;;8.10;99.90;;;;;;5053620;28;19955;-83
2022/11/29 11:33:28;;;;;;;;;;;8.20;99.90;;;;;;5051438;28;20203;-82
2022/11/29 11:36:00;;;;;;;;;;;8.20;99.90;;;;;;5055179;28;19909;-83
2022/11/29 11:38:26;;;;;;;;;;;8.20;99.90;;;;;;5054379;28;19909;-83
2022/11/29 11:41:06;;;;;;;;;;;8.20;99.90;;;;;;5053571;28;19911;-83
2022/11/29 11:43:32;;;;;;;;;;;8.10;99.90;;;;;;5042769;28;20204;-82
2022/11/29 11:45:58;;;;;;;;;;;8.20;99.90;;;;;;5053865;28;19970;-82
2022/11/29 11:48:23;;;;;;;;;;;8.20;99.90;;;;;;5057164;28;19908;-83
2022/11/29 11:50:55;;;;;;;;;;;8.20;99.90;;;;;;5055906;28;20007;-75
2022/11/29 11:53:27;;;;;;;;;;;8.30;99.90;;;;;;5044480;28;19913;-83
2022/11/29 11:55:56;;;;;;;;;;;8.40;99.90;;;;;;5050251;28;20024;-83
2022/11/29 11:58:23;;;;;;;;;;;8.40;99.90;;;;;;5048262;28;19928;-82
2022/11/29 12:00:52;;;;;;;;;;;8.50;99.90;;;;;;5053732;28;19920;-83
2022/11/29 12:03:18;;;;;;;;;;;8.60;99.90;;;;;;5055376;28;20027;-84
2022/11/29 12:05:45;;;;;;;;;;;8.60;99.90;;;;;;5052520;28;20620;-82
2022/11/29 12:08:12;;;;;;;;;;;8.70;99.90;;;;;;5053098;28;19909;-73
2022/11/29 12:10:39;;;;;;;;;;;8.80;99.90;;;;;;5050537;28;19916;-82
2022/11/29 12:13:04;;;;;;;;;;;8.90;99.90;;;;;;5051200;28;20269;-82
2022/11/29 12:15:34;;;;;;;;;;;9.00;99.90;;;;;;5051801;28;19909;-73
2022/11/29 12:18:11;;;;;;;;;;;9.20;99.90;;;;;;5047129;28;20255;-83
2022/11/29 12:20:37;;;;;;;;;;;9.30;99.90;;;;;;5041710;28;19905;-83
2022/11/29 12:23:11;;;;;;;;;;;9.40;99.90;;;;;;5055705;28;19905;-83
2022/11/29 12:25:43;;;;;;;;;;;9.40;99.90;;;;;;5065857;28;19944;-73
2022/11/29 12:28:12;;;;;;;;;;;9.60;99.90;;;;;;5039220;28;20228;-74
2022/11/29 12:30:42;;;;;;;;;;;9.60;99.90;;;;;;5046641;28;20022;-82
2022/11/29 12:33:18;;;;;;;;;;;9.60;99.90;;;;;;5054620;28;20027;-82
2022/11/29 12:35:55;;;;;;;;;;;9.60;99.90;;;;;;5046000;28;19921;-82
2022/11/29 12:38:28;;;;;;;;;;;9.60;99.90;;;;;;5050382;28;19904;-81
2022/11/29 12:40:59;;;;;;;;;;;9.60;99.90;;;;;;5050329;28;19913;-82
2022/11/29 12:43:40;;;;;;;;;;;9.50;99.90;;;;;;5054728;28;20223;-74
2022/11/29 12:46:08;;;;;;;;;;;9.50;99.90;;;;;;5052055;28;19908;-73
2022/11/29 12:48:54;;;;;;;;;;;9.50;99.90;;;;;;5052761;28;19923;-81
2022/11/29 12:51:20;;;;;;;;;;;9.40;99.90;;;;;;5043269;28;19939;-73
2022/11/29 12:53:58;;;;;;;;;;;9.40;99.90;;;;;;5053462;28;20343;-82
2022/11/29 12:56:31;;;;;;;;;;;9.40;99.90;;;;;;5036015;28;19924;-74
2022/11/29 12:59:06;;;;;;;;;;;9.40;99.90;;;;;;5037604;28;19913;-83
2022/11/29 13:01:43;;;;;;;;;;;9.40;99.90;;;;;;5054622;28;19908;-74
2022/11/29 13:04:37;;;;;;;;;;;9.50;99.90;;;;;;5043201;28;20388;-80
2022/11/29 13:07:09;;;;;;;;;;;9.50;99.90;;;;;;5026717;28;20025;-82
2022/11/29 13:09:42;;;;;;;;;;;9.40;99.90;;;;;;5042677;28;19904;-83
2022/11/29 13:12:17;;;;;;;;;;;9.40;99.90;;;;;;5054663;28;19913;-82
2022/11/29 13:14:43;;;;;;;;;;;9.40;99.90;;;;;;5042125;28;19909;-73
2022/11/29 13:17:29;;;;;;;;;;;9.40;99.90;;;;;;5046348;28;19923;-81
2022/11/29 13:19:56;;;;;;;;;;;9.40;99.90;;;;;;5051180;28;19905;-82
2022/11/29 13:22:25;;;;;;;;;;;9.40;99.90;;;;;;5044877;28;19987;-74
2022/11/29 13:24:52;;;;;;;;;;;9.40;99.90;;;;;;5049830;28;20196;-73
2022/11/29 13:27:33;;;;;;;;;;;9.40;99.90;;;;;;5052379;28;19909;-74
2022/11/29 13:29:59;;;;;;;;;;;9.40;99.90;;;;;;5042696;28;19963;-75
2022/11/29 13:32:54;;;;;;;;;;;9.40;99.90;;;;;;5051169;28;19904;-81
2022/11/29 13:35:28;;;;;;;;;;;9.30;99.90;;;;;;5032918;28;20368;-73
2022/11/29 13:37:56;;;;;;;;;;;9.30;99.90;;;;;;5052837;28;19909;-74
2022/11/29 13:40:27;;;;;;;;;;;9.30;99.90;;;;;;5050567;28;19913;-81
2022/11/29 13:43:10;;;;;;;;;;;9.30;99.90;;;;;;5051476;28;19920;-74
2022/11/29 13:45:40;;;;;;;;;;;9.20;99.90;;;;;;5052090;28;20014;-73
2022/11/29 13:48:21;;;;;;;;;;;9.20;99.90;;;;;;5051936;28;20000;-82
2022/11/29 13:50:47;;;;;;;;;;;9.10;99.90;;;;;;5051895;28;19913;-79
2022/11/29 13:53:35;;;;;;;;;;;9.10;99.90;;;;;;5052315;28;19913;-74
2022/11/29 13:56:01;;;;;;;;;;;9.10;99.90;;;;;;5048360;28;19924;-73
2022/11/29 13:58:26;;;;;;;;;;;9.10;99.90;;;;;;5052922;28;20269;-74
2022/11/29 14:00:53;;;;;;;;;;;9.10;99.90;;;;;;5052099;28;20272;-73
2022/11/29 14:03:22;;;;;;;;;;;9.00;99.90;;;;;;5052940;28;19916;-73
2022/11/29 14:05:52;;;;;;;;;;;9.10;99.90;;;;;;5050571;28;19909;-73
2022/11/29 14:08:30;;;;;;;;;;;9.00;99.90;;;;;;5050791;28;19913;-74
2022/11/29 14:11:01;;;;;;;;;;;9.00;99.90;;;;;;5052022;28;19961;-82
2022/11/29 14:13:32;;;;;;;;;;;9.00;99.90;;;;;;5051579;28;19908;-81
2022/11/29 14:16:00;;;;;;;;;;;9.00;99.90;;;;;;5047495;28;19913;-81
2022/11/29 14:18:40;;;;;;;;;;;9.00;99.90;;;;;;5044979;28;19915;-73
2022/11/29 14:21:06;;;;;;;;;;;9.00;99.90;;;;;;5045925;28;19908;-80
2022/11/29 14:23:32;;;;;;;;;;;8.90;99.90;;;;;;5050940;28;20061;-73
2022/11/29 14:25:57;;;;;;;;;;;8.90;99.90;;;;;;5052277;28;19920;-81
2022/11/29 14:28:23;;;;;;;;;;;8.80;99.90;;;;;;5052724;28;19917;-74
2022/11/29 14:30:50;;;;;;;;;;;8.70;99.90;;;;;;5051505;28;19912;-81
2022/11/29 14:33:34;;;;;;;;;;;8.60;99.90;;;;;;5050798;28;19971;-74
2022/11/29 14:36:11;;;;;;;;;;;8.50;99.90;;;;;;5052061;28;19913;-74
2022/11/29 14:38:55;;;;;;;;;;;8.40;99.90;;;;;;5051591;28;19999;-79
2022/11/29 14:41:26;;;;;;;;;;;8.40;99.90;;;;;;5049269;28;20019;-75
2022/11/29 14:44:03;;;;;;;;;;;8.40;99.90;;;;;;5054479;28;19908;-73
2022/11/29 14:46:32;;;;;;;;;;;8.40;99.90;;;;;;5055224;28;19921;-73
2022/11/29 14:48:59;;;;;;;;;;;8.40;99.90;;;;;;5052805;28;19959;-81
2022/11/29 14:51:27;;;;;;;;;;;8.30;99.90;;;;;;5057085;28;19915;-74
2022/11/29 14:54:05;;;;;;;;;;;8.20;99.90;;;;;;5055440;28;19959;-75
2022/11/29 14:56:31;;;;;;;;;;;8.20;99.90;;;;;;5055508;28;19920;-80
2022/11/29 14:59:15;;;;;;;;;;;8.10;99.90;;;;;;5055694;28;19908;-80
2022/11/29 15:01:42;;;;;;;;;;;8.00;99.90;;;;;;5055616;28;20255;-73